Latest Coastal Weather Observations for Port Augusta

IDS60701

Issued at 11:51 pm CST Sunday 14 April 2024 (issued every 10 minutes, with the page automatically refreshed every 10 minutes)

About coastal observations | Map of coastal stations | Coastal observations for SA | Marine services | Other Formats
Station Details ID: 018201 Name: PORT AUGUSTA AERO Lat: -32.51 Lon: 137.72 Height: 13.97 m
Data from the previous 72 hours. | See also: Recent months at Port Augusta
Date/Time
CST
Wind Sea
Height
m
Swell Vis
km
Cloud Weather Temp
°C
Press
MSL
hPa
Rain since
9am
mm
Dir  Spd
kts
Gust
kts
Height
m
Period
s
Dir
14/11:30pm SW 4 8 - - - - 10 - - 18.8 1022.8 0.0
14/11:00pm SSE 9 15 - - - - 10 - - 19.3 1022.9 0.0
14/10:30pm SE 12 15 - - - - 10 - - 20.1 1022.7 0.0
14/10:00pm SE 12 15 - - - - 10 - - 20.5 1022.7 0.0
14/09:30pm SSE 13 17 - - - - 10 - - 20.8 1022.5 0.0
14/09:00pm S 12 17 - - - - 10 - - 20.6 1022.5 0.0
14/08:30pm S 13 16 - - - - 10 - - 20.7 1022.3 0.0
14/08:00pm S 13 16 - - - - 10 - - 20.9 1022.2 0.0
14/07:30pm S 14 17 - - - - 10 - - 21.1 1022.0 0.0
14/07:00pm S 15 18 - - - - 10 - - 21.3 1021.8 0.0
14/06:30pm S 16 21 - - - - 10 - - 21.7 1021.4 0.0
14/06:00pm SSE 15 20 - - - - 10 Mostly cloudy - 22.2 1021.1 0.0
14/05:30pm SSE 15 20 - - - - 10 - - 23.3 1020.8 0.0
14/05:00pm SSE 13 19 - - - - 10 - - 24.1 1020.6 0.0
14/04:30pm SSE 14 18 - - - - 10 - - 23.9 1020.3 0.0
14/04:00pm SSE 13 16 - - - - 10 - - 24.4 1020.3 0.0
14/03:30pm SSE 12 17 - - - - 10 - - 25.8 1020.4 0.0
14/03:00pm SE 11 14 - - - - 10 - - 26.3 1020.4 0.0
14/02:30pm WNW 8 11 - - - - 10 - - 26.8 1020.4 0.0
14/02:00pm NNE 7 11 - - - - 10 - - 26.7 1020.7 0.0
14/01:30pm WNW 6 11 - - - - 10 - - 26.0 1021.1 0.0
14/01:00pm WNW 5 10 - - - - 10 - - 25.3 1021.6 0.0
14/12:30pm N 7 11 - - - - 10 - - 25.3 1022.1 0.0
14/12:00pm W 6 10 - - - - 10 - - 25.2 1022.6 0.0
14/11:30am NNW 5 7 - - - - 10 - - 24.1 1022.9 0.0
14/11:00am N 5 8 - - - - 10 - - 23.4 1023.2 0.0
14/10:30am N 3 7 - - - - 10 - - 22.8 1023.5 0.0
14/10:00am E 3 5 - - - - 10 - - 21.8 1023.7 0.0
14/09:30am ESE 4 6 - - - - 10 - - 20.7 1023.7 0.0
14/09:00am ESE 6 7 - - - - 10 Mostly clear - 18.9 1023.7 0.0
14/08:30am E 3 5 - - - - 10 - - 16.4 1023.5 0.0
14/08:00am NE 3 4 - - - - 10 - - 13.6 1023.4 0.0
14/07:30am ESE 2 3 - - - - 10 - - 11.2 1023.1 0.0
14/07:00am CALM 0 0 - - - - 10 - - 8.5 1022.7 0.0
14/06:30am CALM 0 0 - - - - 10 - - 8.8 1022.4 0.0
14/06:00am CALM 0 0 - - - - 10 - - 7.8 1022.2 0.0
14/05:30am S 1 3 - - - - 10 - - 8.8 1021.9 0.0
14/05:00am NW 2 4 - - - - 10 - - 9.1 1021.6 0.0
14/04:30am NW 3 4 - - - - 10 - - 9.6 1021.6 0.0
14/04:00am NW 4 5 - - - - 10 - - 9.9 1021.6 0.0
14/03:30am NW 4 5 - - - - 10 - - 10.8 1021.5 0.0
14/03:00am SE 5 8 - - - - 10 - - 12.8 1021.7 0.0
14/02:30am ESE 8 11 - - - - 10 - - 14.2 1021.7 0.0
14/02:00am ESE 8 10 - - - - 10 - - 14.4 1021.9 0.0
14/01:30am ESE 5 6 - - - - 10 - - 14.0 1022.1 0.0
14/01:00am SSE 5 8 - - - - 10 - - 14.6 1022.2 0.0
14/12:30am SE 8 12 - - - - 10 - - 15.5 1022.3 0.0
14/12:00am SSE 10 12 - - - - 10 - - 15.9 1022.3 0.0
 
Date/Time
CST
Wind Sea
Height
m
Swell Vis
km
Cloud Weather Temp
°C
Press
MSL
hPa
Rain since
9am
mm
Dir  Spd
kts
Gust
kts
Height
m
Period
s
Dir
13/11:30pm SSE 8 12 - - - - 10 - - 16.1 1022.2 0.0
13/11:00pm SSE 5 8 - - - - 10 - - 16.0 1022.4 0.0
13/10:30pm SE 8 10 - - - - 10 - - 16.1 1022.7 0.0
13/10:00pm SSE 11 15 - - - - 10 - - 16.7 1023.0 0.0
13/09:30pm SSE 13 18 - - - - 10 - - 16.9 1023.2 0.0
13/09:00pm SSE 14 18 - - - - 10 - - 16.8 1023.1 0.0
13/08:30pm SSE 13 17 - - - - 10 - - 16.7 1022.8 0.0
13/08:00pm SSE 10 15 - - - - 10 - - 16.7 1022.6 0.0
13/07:30pm S 9 11 - - - - 10 - - 16.9 1022.5 0.0
13/07:00pm SSE 9 12 - - - - 10 - - 17.7 1022.2 0.0
13/06:30pm SSE 9 13 - - - - 10 - - 18.5 1021.9 0.0
13/06:00pm SSE 12 17 - - - - 10 - - 19.5 1021.6 0.0
13/05:30pm SSE 12 16 - - - - 10 - - 20.0 1021.2 0.0
13/05:00pm SSE 13 18 - - - - 10 - - 20.8 1020.9 0.0
13/04:30pm SSE 14 19 - - - - 10 - - 21.4 1020.7 0.0
13/04:00pm SSE 14 19 - - - - 10 - - 22.2 1020.6 0.0
13/03:30pm SSE 10 15 - - - - 10 - - 23.4 1020.6 0.0
13/03:00pm SSE 9 13 - - - - 10 - - 23.1 1020.8 0.0
13/02:30pm SSE 10 15 - - - - 10 - - 23.3 1021.1 0.0
13/02:00pm NNE 4 8 - - - - 10 - - 24.2 1021.3 0.0
13/01:30pm S 4 10 - - - - 10 - - 23.5 1021.8 0.0
13/01:00pm SW 3 7 - - - - 10 - - 22.7 1022.3 0.0
13/12:30pm ESE 6 9 - - - - 10 - - 22.3 1022.9 0.0
13/12:00pm SSW 5 9 - - - - 10 - - 21.9 1023.6 0.0
13/11:30am S 4 6 - - - - 10 - - 20.9 1024.1 0.0
13/11:00am SE 5 10 - - - - 10 - - 20.3 1024.2 0.0
13/10:30am NE 5 9 - - - - 10 - - 19.6 1024.5 0.0
13/10:00am NNE 6 10 - - - - 10 - - 18.8 1024.7 0.0
13/09:30am NNE 7 10 - - - - 10 - - 18.1 1024.8 0.0
13/09:00am NE 10 12 - - - - 10 - - 17.0 1024.8 0.0
13/08:30am NE 11 14 - - - - 10 - - 16.0 1024.6 0.0
13/08:00am NE 9 12 - - - - 10 - - 15.3 1024.4 0.0
13/07:30am NE 8 11 - - - - 10 - - 14.4 1024.0 0.0
13/07:00am NE 8 10 - - - - 10 - - 13.2 1023.8 0.0
13/06:30am ENE 9 13 - - - - 10 - - 13.1 1023.7 0.0
13/06:00am ENE 10 12 - - - - 10 - - 13.3 1023.5 0.0
13/05:30am NE 10 13 - - - - 10 - - 13.8 1023.2 0.0
13/05:00am ENE 9 12 - - - - 10 - - 13.5 1022.9 0.0
13/04:30am ENE 8 11 - - - - 10 - - 13.5 1022.8 0.0
13/04:00am ENE 9 13 - - - - 10 - - 13.9 1022.7 0.0
13/03:30am ENE 8 12 - - - - 10 - - 14.2 1022.7 0.0
13/03:00am ENE 9 12 - - - - 10 - - 14.1 1022.9 0.0
13/02:30am ENE 8 11 - - - - 10 - - 14.0 1023.1 0.0
13/02:00am ENE 9 12 - - - - 10 - - 14.4 1023.2 0.0
13/01:30am NE 11 14 - - - - 10 - - 14.5 1023.1 0.0
13/01:00am ENE 14 18 - - - - 10 - - 14.8 1023.0 0.0
13/12:30am NE 15 19 - - - - 10 - - 14.9 1023.1 0.0
13/12:00am SSE 15 22 - - - - 10 - - 15.1 1023.2 0.0
 
Date/Time
CST
Wind Sea
Height
m
Swell Vis
km
Cloud Weather Temp
°C
Press
MSL
hPa
Rain since
9am
mm
Dir  Spd
kts
Gust
kts
Height
m
Period
s
Dir
12/11:30pm SSE 15 19 - - - - 10 - - 15.3 1023.1 0.0
12/11:00pm SSE 15 19 - - - - 10 - - 15.5 1023.0 0.0
12/10:30pm SSE 16 21 - - - - 10 - - 15.6 1023.2 0.0
12/10:00pm S 13 17 - - - - 10 - - 16.0 1023.5 0.0
12/09:30pm S 10 13 - - - - 10 - - 16.1 1023.7 0.0
12/09:00pm S 10 13 - - - - 10 - - 16.2 1023.6 0.0
12/08:30pm S 10 15 - - - - 10 - - 16.2 1023.2 0.0
12/08:00pm SSW 10 14 - - - - 10 - - 16.5 1023.2 0.0
12/07:30pm S 10 13 - - - - 10 - - 16.7 1022.9 0.0
12/07:00pm S 10 13 - - - - 10 - - 17.1 1022.7 0.0
12/06:30pm S 9 12 - - - - 10 - - 17.5 1022.4 0.0
12/06:00pm SSE 10 13 - - - - 10 - - 18.1 1022.0 0.0
12/05:30pm SSE 9 12 - - - - 10 - - 18.3 1021.8 0.0
12/05:00pm SSE 11 15 - - - - 10 - - 18.7 1021.7 0.0
12/04:30pm SSE 12 14 - - - - 10 - - 18.8 1021.6 0.0
12/04:00pm SSE 11 14 - - - - 10 - - 19.4 1021.6 0.0
12/03:30pm SSW 11 13 - - - - 10 - - 20.2 1021.7 0.0
12/03:00pm SW 14 18 - - - - 10 Partly cloudy - 20.3 1021.7 0.0
12/02:30pm SSE 15 22 - - - - 10 - - 20.3 1021.5 0.0
12/02:00pm SE 15 22 - - - - 10 - - 20.4 1021.8 0.0
12/01:30pm SE 13 18 - - - - 10 - - 20.6 1022.1 0.0
12/01:00pm SSE 12 17 - - - - 10 - - 19.5 1022.7 0.0
12/12:30pm SE 11 15 - - - - 10 - - 20.8 1023.1 0.0
12/12:00pm SSE 12 15 - - - - 10 Partly cloudy - 20.7 1023.5 0.0
12/11:30am SE 11 14 - - - - 10 Partly cloudy - 19.8 1024.2 0.0
12/11:00am SE 11 14 - - - - 10 - - 19.4 1024.6 0.0
12/10:30am SSE 11 15 - - - - 10 - - 18.9 1024.9 0.0
12/10:00am S 13 16 - - - - 10 - - 18.8 1025.0 0.0
12/09:30am SSE 12 16 - - - - 10 - - 18.1 1025.3 0.0
12/09:00am SSE 10 15 - - - - 10 - - 17.0 1025.3 0.0
12/08:30am SE 11 13 - - - - 10 - - 16.4 1025.1 0.0
12/08:00am SSE 11 15 - - - - 10 - - 15.6 1024.5 0.0
12/07:30am SSE 8 11 - - - - 10 - - 14.6 1024.2 0.0
12/07:00am SSE 9 12 - - - - 10 - - 13.6 1023.8 0.0
12/06:30am SSE 7 10 - - - - 10 - - 13.5 1023.7 0.0
12/06:00am SSE 10 12 - - - - 10 - - 14.0 1023.7 0.0
12/05:30am S 9 11 - - - - 10 - - 14.0 1023.4 0.0
12/05:00am S 7 9 - - - - 10 - - 13.8 1023.3 0.0
12/04:30am S 8 11 - - - - 10 - - 14.1 1023.0 0.0
12/04:00am S 8 13 - - - - 10 - - 14.2 1022.6 0.0
12/03:30am SSW 7 11 - - - - 10 - - 14.2 1022.8 0.0
12/03:00am SSW 9 11 - - - - 10 - - 14.2 1022.7 0.0
12/02:30am S 9 12 - - - - 10 - - 14.4 1022.7 0.0
12/02:00am S 10 12 - - - - 10 - - 14.6 1023.0 0.0
12/01:30am S 10 13 - - - - 10 - - 14.9 1023.3 0.0
12/01:00am SSW 7 10 - - - - 10 - - 14.7 1023.8 0.0
12/12:30am SSW 8 11 - - - - 10 - - 15.0 1023.8 0.0
12/12:00am SSE 10 14 - - - - 10 - - 15.3 1023.7 0.0

Other formats

Comma delimited format used in spreadsheet applications
http://www.bom.gov.au/fwo/IDS60701/IDS60701.95666.axf

JavaScript Object Notation format (JSON) in row-major order
http://www.bom.gov.au/fwo/IDS60701/IDS60701.95666.json

Data quality

Most of these data are generated automatically and are frequently updated. Quality checks on data are not normally performed. It is possible for incorrect values to appear. Refer to information at About Latest Weather Observations and please check the disclaimer before using these data.